El Paso International Airport
KELP : rendu visible

Aérodrome :











RETROUVEZ-NOUS SUR...

 
LOGIN :

S'inscrire | Disclaimer

   EN    FR    IT 

 









Légende :    VFR   VFR Marginal   IFR   IFR Intensif   IFR Très Intensif
Visi : 
Plafond : 
>= 8 km
>= 3000ft
5 à 8 km
1000 à 3000 ft
1500m à 5 km
500 à 1000 ft
800 à 1500m
200 à 500 ft
< 800m
< 200 ft
Symboles :   Orages  Brouillard  Fortes neiges  Fortes précipitations  Vent > 20 kt






- Altitude de l'aérodrome : 3959 ft
- Code IATA : ELP


KELP - El Paso International

DERNIER METAR :
  • 200351Z 26004KT 10SM -RA BKN075 OVC110 14/13 A2993 RMK AO2 SLP093 MTNS OBSCD SW P0006 T01440128

METARs EXPIRÉS :
  • 200251Z 24010KT 8SM -RA BKN075 OVC110 15/12 A2994 RMK AO2 SLP101 MTNS OBSCD SW AND NW P0005 60010 T01500117 50020
  • 200151Z 27016KT 7SM RA OVC075 16/12 A2996 RMK AO2 SLP111 MTNS OBSCD SW AND NW P0005 T01560117

TAF KELP
Valide du 20 à 01h jusqu'au 21 à 00h UTC


200123Z 2001/2024 20010KT 6SM -SHRA BKN060 OVC100
TEMPO 2001/2003 26015G25KT 5SM SHRA BKN050
FM200400 19008KT P6SM BKN070 OVC120
FM201200 20012KT P6SM BKN070



MET'MAP, la Météo Aéronautique d'un coup d'oeil ! - Copyright ORBIFLY Décembre 2007 - Disclaimer

ORBIFLY MET'MAP TEAM :

Programmation & Développement : Alexandra Zaïnal
Conception & Développement : Baudouin d'Aumeries
Co-Programmation & Développement : Marc-Olivier Méhu
Soutien technique & logistique : Manuel Goepfert

Contact : metmap@orbifly.com




SOURCES & CREDITS :

   NOAA       Earth
Advisory